createdAt,value
2023-05-06T00:00:54.474Z,12.05
2023-05-06T00:01:56.634Z,11.97
2023-05-06T00:03:00.432Z,12.02
2023-05-06T00:04:02.910Z,12.00
2023-05-06T00:05:06.080Z,12.07
2023-05-06T00:06:09.121Z,12.08
2023-05-06T00:07:11.817Z,12.08
2023-05-06T00:08:13.985Z,12.08
2023-05-06T00:09:16.196Z,12.07
2023-05-06T00:10:18.544Z,12.07
2023-05-06T00:11:21.086Z,12.01
2023-05-06T00:12:23.396Z,12.01
2023-05-06T00:13:25.642Z,11.93
2023-05-06T00:14:27.993Z,12.01
2023-05-06T00:15:32.130Z,11.99
2023-05-06T00:16:34.550Z,12.00
2023-05-06T00:17:37.110Z,11.95
2023-05-06T00:18:39.507Z,11.88
2023-05-06T00:19:42.302Z,11.88
2023-05-06T00:20:44.465Z,11.90
2023-05-06T00:21:46.611Z,11.91
2023-05-06T00:22:48.779Z,11.90
2023-05-06T00:23:50.922Z,11.91
2023-05-06T00:24:53.112Z,11.92
2023-05-06T00:25:55.467Z,11.84
2023-05-06T00:26:58.481Z,11.83
2023-05-06T00:28:00.906Z,11.90
2023-05-06T00:29:03.246Z,11.85
2023-05-06T00:30:06.329Z,11.90
2023-05-06T00:31:09.693Z,11.81
2023-05-06T00:32:12.460Z,11.79
2023-05-06T00:33:14.645Z,11.73
2023-05-06T00:34:16.919Z,11.76
2023-05-06T00:35:19.216Z,11.74
2023-05-06T00:36:21.413Z,11.74
2023-05-06T00:37:23.530Z,11.81
2023-05-06T00:38:26.041Z,11.81
2023-05-06T00:39:28.267Z,11.79
2023-05-06T00:40:30.430Z,11.81
2023-05-06T00:41:33.684Z,11.82
2023-05-06T00:42:35.943Z,11.82
2023-05-06T00:43:38.234Z,11.82
2023-05-06T00:44:40.504Z,11.74
2023-05-06T00:45:43.246Z,11.79
2023-05-06T00:46:45.864Z,11.73
2023-05-06T00:47:48.279Z,11.77
2023-05-06T00:48:51.067Z,11.80
2023-05-06T00:49:53.573Z,11.77
2023-05-06T00:50:55.940Z,11.80
2023-05-06T00:51:59.323Z,11.77
2023-05-06T00:53:03.273Z,11.77
2023-05-06T00:54:05.797Z,11.74
2023-05-06T00:55:08.926Z,11.73
2023-05-06T00:56:11.474Z,11.76
2023-05-06T00:57:14.041Z,11.69
2023-05-06T00:58:16.275Z,11.71
2023-05-06T00:59:18.966Z,11.74
2023-05-06T01:00:22.115Z,11.82
2023-05-06T01:01:24.518Z,11.73
2023-05-06T01:02:39.670Z,11.75
2023-05-06T01:03:48.678Z,11.76
2023-05-06T01:04:51.795Z,11.81
2023-05-06T01:06:29.757Z,11.99
2023-05-06T01:07:40.731Z,11.72
2023-05-06T01:08:48.781Z,11.90
2023-05-06T01:10:10.774Z,11.79
2023-05-06T01:11:35.252Z,11.67
2023-05-06T01:12:47.333Z,11.57
2023-05-06T01:14:01.394Z,11.56
2023-05-06T01:15:17.448Z,11.60
2023-05-06T01:16:23.357Z,11.39
2023-05-06T01:17:28.386Z,11.46
2023-05-06T01:18:33.206Z,11.46
2023-05-06T01:19:46.571Z,11.49
2023-05-06T01:20:51.263Z,11.40
2023-05-06T01:21:54.827Z,11.42
2023-05-06T01:22:57.049Z,11.39
2023-05-06T01:23:59.988Z,11.35
2023-05-06T01:25:02.131Z,11.36
2023-05-06T01:26:04.283Z,11.33
2023-05-06T01:27:07.192Z,11.39
2023-05-06T01:28:11.554Z,11.44
2023-05-06T01:29:13.806Z,11.36
2023-05-06T01:30:22.956Z,11.49
2023-05-06T01:31:36.784Z,11.51
2023-05-06T01:33:11.342Z,11.57
2023-05-06T01:34:42.081Z,11.48
2023-05-06T01:36:10.522Z,11.48
2023-05-06T01:37:18.623Z,11.38
2023-05-06T01:38:34.790Z,11.33
2023-05-06T01:39:41.612Z,11.19
2023-05-06T01:40:54.250Z,11.15
2023-05-06T01:41:59.385Z,11.05
2023-05-06T01:43:04.554Z,11.04
2023-05-06T01:44:08.267Z,10.98
2023-05-06T01:45:11.974Z,10.93
2023-05-06T01:46:19.042Z,10.96
2023-05-06T01:47:21.986Z,11.00
2023-05-06T01:48:30.243Z,11.05
2023-05-06T01:49:32.856Z,11.00
2023-05-06T01:50:35.791Z,10.96
2023-05-06T01:51:38.652Z,10.96
2023-05-06T01:52:41.218Z,10.89
2023-05-06T01:53:43.403Z,10.97
2023-05-06T01:54:45.601Z,10.87
2023-05-06T01:55:48.790Z,10.85
2023-05-06T01:56:52.205Z,10.80
2023-05-06T01:57:55.174Z,10.82
2023-05-06T01:58:59.543Z,10.76
2023-05-06T02:00:02.329Z,10.88
2023-05-06T02:01:14.340Z,10.83
2023-05-06T02:02:16.547Z,10.88
2023-05-06T02:03:19.232Z,10.91
2023-05-06T02:04:21.679Z,10.83
2023-05-06T02:05:24.097Z,10.84
2023-05-06T02:06:30.456Z,10.84
2023-05-06T02:07:32.614Z,10.76
2023-05-06T02:08:34.876Z,10.73
2023-05-06T02:09:37.880Z,10.69
2023-05-06T02:10:40.418Z,10.62
2023-05-06T02:11:44.531Z,10.76
2023-05-06T02:12:47.151Z,10.81
2023-05-06T02:13:49.644Z,10.72
2023-05-06T02:14:51.792Z,10.65
2023-05-06T02:15:54.724Z,10.63
2023-05-06T02:16:57.652Z,10.57
2023-05-06T02:18:00.030Z,10.56
2023-05-06T02:19:02.786Z,10.57
2023-05-06T02:20:06.048Z,10.57
2023-05-06T02:21:09.959Z,10.72
2023-05-06T02:22:12.200Z,10.59
2023-05-06T02:23:14.588Z,10.59
2023-05-06T02:24:16.746Z,10.61
2023-05-06T02:25:18.919Z,10.71
2023-05-06T02:26:21.118Z,10.68
2023-05-06T02:27:23.369Z,10.76
2023-05-06T02:28:25.796Z,10.74
2023-05-06T02:29:27.985Z,10.68
2023-05-06T02:30:31.124Z,10.64
2023-05-06T02:31:33.823Z,10.71
2023-05-06T02:32:36.342Z,10.78
2023-05-06T02:33:38.528Z,10.79
2023-05-06T02:34:40.674Z,10.88
2023-05-06T02:35:42.874Z,10.83
2023-05-06T02:36:45.028Z,10.78
2023-05-06T02:37:47.209Z,10.79
2023-05-06T02:38:49.356Z,10.74
2023-05-06T02:39:51.522Z,10.80
2023-05-06T02:40:53.655Z,10.80
2023-05-06T02:41:55.893Z,10.77
2023-05-06T02:42:58.112Z,10.73
2023-05-06T02:44:00.245Z,10.72
2023-05-06T02:45:02.605Z,10.76
2023-05-06T02:46:07.653Z,10.76
2023-05-06T02:47:09.945Z,10.84
2023-05-06T02:48:12.114Z,10.90
2023-05-06T02:49:14.328Z,10.83
2023-05-06T02:50:16.981Z,10.81
2023-05-06T02:51:19.176Z,10.80
2023-05-06T02:52:21.331Z,10.79
2023-05-06T02:53:23.489Z,10.81
2023-05-06T02:54:27.337Z,10.80
2023-05-06T02:55:29.557Z,10.89
2023-05-06T02:56:31.727Z,10.82
2023-05-06T02:57:33.945Z,10.87
2023-05-06T02:58:36.263Z,10.85
2023-05-06T02:59:38.449Z,10.83
2023-05-06T03:00:40.621Z,10.79
2023-05-06T03:01:42.777Z,10.77
2023-05-06T03:02:45.041Z,10.82
2023-05-06T03:03:47.738Z,10.86
2023-05-06T03:04:49.924Z,10.86
2023-05-06T03:05:52.183Z,10.76
2023-05-06T03:06:54.505Z,10.87
2023-05-06T03:07:57.063Z,10.80
2023-05-06T03:08:59.284Z,10.74
2023-05-06T03:10:01.508Z,10.72
2023-05-06T03:11:08.284Z,10.67
2023-05-06T03:12:11.903Z,10.79
2023-05-06T03:13:14.737Z,10.77
2023-05-06T03:14:17.092Z,10.73
2023-05-06T03:15:19.326Z,10.78
2023-05-06T03:16:21.564Z,10.68
2023-05-06T03:17:26.945Z,10.67
2023-05-06T03:18:29.197Z,10.70
2023-05-06T03:19:31.366Z,10.68
2023-05-06T03:20:34.250Z,10.64
2023-05-06T03:21:36.718Z,10.67
2023-05-06T03:22:39.067Z,10.70
2023-05-06T03:23:41.258Z,10.67
2023-05-06T03:24:43.538Z,10.64
2023-05-06T03:25:46.258Z,10.65
2023-05-06T03:26:49.198Z,10.63
2023-05-06T03:27:51.344Z,10.56
2023-05-06T03:28:56.583Z,10.54
2023-05-06T03:29:58.904Z,10.54
2023-05-06T03:31:01.169Z,10.53
2023-05-06T03:32:04.250Z,10.52
2023-05-06T03:33:09.818Z,10.53
2023-05-06T03:34:12.112Z,10.53
2023-05-06T03:35:14.741Z,10.53
2023-05-06T03:36:19.652Z,10.56
2023-05-06T03:37:23.445Z,10.59
2023-05-06T03:38:29.519Z,10.56
2023-05-06T03:39:36.655Z,10.54
2023-05-06T03:40:39.330Z,10.54
2023-05-06T03:41:42.021Z,10.63
2023-05-06T03:42:45.067Z,10.65
2023-05-06T03:43:47.495Z,10.68
2023-05-06T03:44:52.144Z,10.56
2023-05-06T03:45:54.513Z,10.58
2023-05-06T03:46:57.166Z,10.59
2023-05-06T03:47:59.520Z,10.57
2023-05-06T03:49:02.876Z,10.59
2023-05-06T03:50:05.968Z,10.56
2023-05-06T03:51:09.684Z,10.56
2023-05-06T03:52:11.917Z,10.54
2023-05-06T03:53:14.627Z,10.58
2023-05-06T03:54:19.045Z,10.63
2023-05-06T03:55:21.964Z,10.64
2023-05-06T03:56:24.413Z,10.57
2023-05-06T03:57:29.559Z,10.67
2023-05-06T03:58:31.989Z,10.70
2023-05-06T03:59:35.295Z,10.62
2023-05-06T04:00:39.380Z,10.67
2023-05-06T04:01:42.141Z,10.64
2023-05-06T04:02:45.897Z,10.62
2023-05-06T04:03:55.648Z,10.67
2023-05-06T04:04:59.879Z,10.67
2023-05-06T04:06:03.737Z,10.62
2023-05-06T04:07:05.899Z,10.63
2023-05-06T04:08:08.033Z,10.58
2023-05-06T04:09:10.318Z,10.60
2023-05-06T04:10:14.555Z,10.63
2023-05-06T04:11:19.690Z,10.55
2023-05-06T04:12:23.027Z,10.52
2023-05-06T04:13:25.370Z,10.51
2023-05-06T04:14:28.038Z,10.48
2023-05-06T04:15:32.807Z,10.56
2023-05-06T04:16:35.851Z,10.55
2023-05-06T04:17:38.081Z,10.54
2023-05-06T04:18:41.005Z,10.54
2023-05-06T04:19:47.340Z,10.59
2023-05-06T04:20:49.900Z,10.61
2023-05-06T04:21:52.090Z,10.57
2023-05-06T04:22:54.961Z,10.57
2023-05-06T04:23:57.160Z,10.56
2023-05-06T04:25:08.534Z,10.61
2023-05-06T04:26:12.761Z,10.56
2023-05-06T04:27:17.119Z,10.61
2023-05-06T04:28:20.706Z,10.63
2023-05-06T04:29:26.322Z,10.65
2023-05-06T04:30:34.107Z,10.71
2023-05-06T04:31:36.957Z,10.70
2023-05-06T04:32:42.419Z,10.77
2023-05-06T04:33:45.502Z,10.76
2023-05-06T04:34:54.437Z,10.88
2023-05-06T04:35:56.638Z,10.91
2023-05-06T04:37:00.344Z,10.85
2023-05-06T04:38:09.847Z,10.87
2023-05-06T04:39:14.546Z,10.86
2023-05-06T04:40:17.977Z,10.87
2023-05-06T04:41:23.684Z,10.72
2023-05-06T04:42:26.061Z,10.73
2023-05-06T04:43:38.453Z,10.87
2023-05-06T04:44:46.922Z,10.84
2023-05-06T04:45:52.871Z,10.81
2023-05-06T04:46:59.841Z,11.00
2023-05-06T04:48:01.978Z,10.75
2023-05-06T04:49:04.967Z,10.70
2023-05-06T04:50:07.406Z,10.68
2023-05-06T04:51:09.629Z,10.74
2023-05-06T04:52:12.655Z,10.73
2023-05-06T04:53:15.256Z,10.62
2023-05-06T04:54:17.560Z,10.56
2023-05-06T04:55:19.890Z,10.64
2023-05-06T04:56:26.761Z,10.66
2023-05-06T04:57:31.006Z,10.70
2023-05-06T04:58:33.321Z,10.65
2023-05-06T04:59:35.651Z,10.68
2023-05-06T05:00:38.403Z,10.62
2023-05-06T05:01:40.613Z,10.59
2023-05-06T05:02:43.512Z,10.58
2023-05-06T05:03:46.416Z,10.65
2023-05-06T05:04:48.607Z,10.83
2023-05-06T05:05:51.182Z,10.92
2023-05-06T05:06:54.942Z,11.06
2023-05-06T05:07:57.076Z,11.11
2023-05-06T05:09:01.015Z,11.18
2023-05-06T05:10:05.141Z,11.22
2023-05-06T05:11:08.206Z,11.15
2023-05-06T05:12:10.634Z,11.17
2023-05-06T05:13:17.188Z,11.28
2023-05-06T05:14:20.456Z,11.26
2023-05-06T05:15:22.977Z,11.17
2023-05-06T05:16:25.452Z,11.27
2023-05-06T05:17:28.929Z,11.25
2023-05-06T05:18:31.936Z,11.14
2023-05-06T05:19:39.907Z,11.15
2023-05-06T05:20:42.702Z,11.22
2023-05-06T05:21:47.694Z,11.19
2023-05-06T05:22:50.596Z,11.21
2023-05-06T05:23:52.793Z,11.35
2023-05-06T05:24:54.964Z,11.29
2023-05-06T05:25:57.174Z,11.28
2023-05-06T05:26:59.798Z,11.23
2023-05-06T05:28:02.135Z,11.31
2023-05-06T05:29:05.056Z,11.28
2023-05-06T05:30:08.740Z,11.25
2023-05-06T05:31:13.722Z,11.28
2023-05-06T05:32:16.528Z,11.28
2023-05-06T05:33:18.920Z,11.32
2023-05-06T05:34:21.493Z,11.38
2023-05-06T05:35:24.803Z,11.45
2023-05-06T05:36:29.017Z,11.61
2023-05-06T05:37:33.628Z,11.70
2023-05-06T05:38:36.337Z,11.69
2023-05-06T05:39:39.332Z,11.73
2023-05-06T05:40:42.696Z,11.75
2023-05-06T05:41:45.030Z,11.89
2023-05-06T05:42:47.658Z,11.95
2023-05-06T05:43:57.496Z,11.83
2023-05-06T05:45:01.967Z,11.83
2023-05-06T05:46:04.683Z,11.90
2023-05-06T05:47:08.280Z,11.82
2023-05-06T05:48:11.181Z,11.89
2023-05-06T05:49:14.364Z,11.84
2023-05-06T05:50:17.286Z,11.78
2023-05-06T05:51:20.453Z,11.83
2023-05-06T05:52:22.803Z,11.85
2023-05-06T05:53:25.033Z,11.88
2023-05-06T05:54:27.285Z,11.95
2023-05-06T05:55:29.785Z,11.87
2023-05-06T05:56:32.248Z,11.81
2023-05-06T05:57:34.608Z,11.74
2023-05-06T05:58:36.914Z,11.58
2023-05-06T05:59:39.328Z,11.49
2023-05-06T06:00:42.431Z,11.38
2023-05-06T06:01:48.122Z,11.22
2023-05-06T06:02:51.170Z,11.29
2023-05-06T06:03:56.500Z,11.21
2023-05-06T06:04:59.060Z,11.17
2023-05-06T06:06:01.326Z,11.21
2023-05-06T06:07:03.962Z,11.31
2023-05-06T06:08:10.307Z,11.33
2023-05-06T06:09:13.072Z,11.24
2023-05-06T06:10:16.183Z,11.09
2023-05-06T06:11:19.460Z,11.12
2023-05-06T06:12:23.230Z,11.28
2023-05-06T06:13:27.897Z,11.28
2023-05-06T06:14:31.337Z,11.33
2023-05-06T06:15:33.619Z,11.31
2023-05-06T06:16:36.865Z,11.34
2023-05-06T06:17:41.187Z,11.32
2023-05-06T06:18:43.580Z,11.42
2023-05-06T06:19:47.304Z,11.46
2023-05-06T06:20:51.679Z,11.53
2023-05-06T06:21:55.421Z,11.54
2023-05-06T06:22:58.748Z,11.61
2023-05-06T06:24:01.174Z,11.57
2023-05-06T06:25:03.603Z,11.57
2023-05-06T06:26:05.807Z,11.54
2023-05-06T06:27:08.814Z,11.46
2023-05-06T06:28:11.005Z,11.44
2023-05-06T06:29:14.305Z,11.33
2023-05-06T06:30:16.503Z,11.39
2023-05-06T06:31:18.764Z,11.42
2023-05-06T06:32:21.044Z,11.45
2023-05-06T06:33:23.191Z,11.46
2023-05-06T06:34:26.252Z,11.44
2023-05-06T06:35:28.440Z,11.67
2023-05-06T06:36:30.622Z,11.84
2023-05-06T06:37:32.793Z,11.83
2023-05-06T06:38:35.777Z,11.80
2023-05-06T06:39:38.329Z,11.76
2023-05-06T06:40:40.614Z,11.79
2023-05-06T06:41:44.071Z,11.81
2023-05-06T06:42:47.599Z,11.74
2023-05-06T06:44:17.468Z,11.84
2023-05-06T06:45:19.692Z,11.84
2023-05-06T06:46:22.021Z,11.83
2023-05-06T06:47:24.297Z,11.79
2023-05-06T06:48:26.546Z,11.96
2023-05-06T06:49:30.776Z,12.05
2023-05-06T06:50:34.083Z,12.09
2023-05-06T06:51:36.238Z,12.06
2023-05-06T06:52:38.729Z,12.17
2023-05-06T06:53:41.414Z,12.13
2023-05-06T06:54:43.662Z,12.24
2023-05-06T06:55:46.188Z,12.42
2023-05-06T06:56:48.496Z,12.45
2023-05-06T06:57:50.771Z,12.48
2023-05-06T06:58:53.476Z,12.61
2023-05-06T06:59:55.986Z,12.55
2023-05-06T07:00:58.161Z,12.62
2023-05-06T07:02:00.420Z,12.66
2023-05-06T07:03:02.742Z,12.59
2023-05-06T07:04:07.143Z,12.76
2023-05-06T07:05:10.145Z,12.63
2023-05-06T07:06:12.469Z,12.77
2023-05-06T07:07:15.111Z,12.85
2023-05-06T07:08:17.388Z,12.98
2023-05-06T07:09:19.696Z,12.81
2023-05-06T07:10:24.953Z,12.99
2023-05-06T07:11:27.129Z,13.10
2023-05-06T07:12:29.275Z,13.25
2023-05-06T07:13:31.494Z,13.41
2023-05-06T07:14:34.027Z,13.77
2023-05-06T07:15:36.471Z,13.96
2023-05-06T07:16:38.647Z,14.15
2023-05-06T07:17:40.870Z,14.27
2023-05-06T07:18:43.087Z,14.67
2023-05-06T07:19:46.978Z,15.39
2023-05-06T07:20:49.169Z,15.43
2023-05-06T07:21:51.399Z,15.38
2023-05-06T07:22:53.525Z,15.03
2023-05-06T07:23:55.694Z,14.69
2023-05-06T07:24:57.980Z,14.96
2023-05-06T07:26:00.148Z,14.96
2023-05-06T07:27:02.371Z,15.52
2023-05-06T07:28:05.034Z,15.86
2023-05-06T07:29:08.440Z,16.86
2023-05-06T07:30:11.227Z,17.13
2023-05-06T07:31:15.860Z,17.77
2023-05-06T07:32:18.078Z,18.43
2023-05-06T07:33:20.305Z,19.04
2023-05-06T07:34:22.524Z,19.33
2023-05-06T07:35:24.777Z,19.19
2023-05-06T07:36:27.622Z,19.11
2023-05-06T07:37:29.789Z,19.51
2023-05-06T07:38:32.050Z,20.02
2023-05-06T07:39:34.804Z,19.98
2023-05-06T07:40:36.931Z,20.29
2023-05-06T07:41:40.366Z,20.75
2023-05-06T07:42:43.269Z,20.76
2023-05-06T07:43:45.656Z,21.16
2023-05-06T07:44:47.765Z,21.59
2023-05-06T07:45:49.925Z,21.92
2023-05-06T07:46:52.255Z,22.08
2023-05-06T07:47:54.670Z,21.80
2023-05-06T07:48:56.833Z,21.46
2023-05-06T07:50:00.226Z,20.92
2023-05-06T07:51:03.625Z,20.33
2023-05-06T07:52:06.630Z,19.94
2023-05-06T07:53:08.841Z,19.24
2023-05-06T07:54:11.371Z,19.30
2023-05-06T07:55:13.763Z,19.31
2023-05-06T07:56:16.154Z,18.81
2023-05-06T07:57:18.493Z,18.89
2023-05-06T07:58:20.634Z,18.87
2023-05-06T07:59:23.578Z,18.34
2023-05-06T08:00:25.881Z,17.34
2023-05-06T08:01:29.163Z,17.41
2023-05-06T08:02:32.162Z,17.30
2023-05-06T08:03:35.398Z,17.34
2023-05-06T08:04:38.009Z,17.06
2023-05-06T08:05:40.186Z,17.21
2023-05-06T08:06:42.295Z,17.44
2023-05-06T08:07:44.502Z,17.61
2023-05-06T08:08:47.446Z,17.68
2023-05-06T08:09:49.614Z,17.62
2023-05-06T08:10:51.763Z,17.03
2023-05-06T08:11:53.987Z,17.26
2023-05-06T08:12:56.349Z,17.24
2023-05-06T08:13:58.567Z,16.93
2023-05-06T08:15:00.966Z,17.07
2023-05-06T08:16:06.639Z,17.05
2023-05-06T08:17:08.940Z,17.14
2023-05-06T08:18:21.675Z,16.91
2023-05-06T08:19:25.236Z,16.89
2023-05-06T08:20:27.584Z,16.63
2023-05-06T08:21:29.717Z,16.59
2023-05-06T08:22:32.085Z,16.38
2023-05-06T08:23:34.299Z,16.42
2023-05-06T08:24:36.468Z,16.47
2023-05-06T08:25:38.781Z,16.52
2023-05-06T08:26:41.601Z,16.57
2023-05-06T08:27:43.771Z,16.35
2023-05-06T08:28:45.956Z,16.59
2023-05-06T08:29:48.151Z,16.61
2023-05-06T08:30:52.224Z,16.80
2023-05-06T08:31:54.471Z,17.02
2023-05-06T08:32:56.859Z,17.09
2023-05-06T08:33:59.081Z,17.13
2023-05-06T08:35:01.330Z,17.30
2023-05-06T08:36:03.782Z,17.30
2023-05-06T08:37:05.939Z,17.54
2023-05-06T08:38:08.105Z,17.37
2023-05-06T08:39:10.271Z,17.28
2023-05-06T08:40:22.679Z,17.56
2023-05-06T08:41:26.314Z,17.29
2023-05-06T08:42:30.457Z,17.35
2023-05-06T08:43:40.158Z,17.23
2023-05-06T08:44:43.884Z,17.09
2023-05-06T08:45:46.386Z,16.99
2023-05-06T08:46:48.763Z,16.88
2023-05-06T08:47:51.780Z,16.78
2023-05-06T08:48:56.319Z,16.78
2023-05-06T08:49:58.483Z,16.80
2023-05-06T08:51:03.779Z,17.03
2023-05-06T08:52:06.581Z,16.79
2023-05-06T08:53:12.043Z,16.69
2023-05-06T08:54:15.194Z,16.76
2023-05-06T08:55:19.305Z,17.05
2023-05-06T08:56:28.712Z,17.15
2023-05-06T08:57:32.160Z,17.23
2023-05-06T08:58:35.563Z,17.34
2023-05-06T08:59:37.954Z,17.32
2023-05-06T09:00:40.395Z,17.38
2023-05-06T09:01:42.715Z,17.33
2023-05-06T09:02:45.157Z,17.51
2023-05-06T09:03:48.792Z,17.57
2023-05-06T09:04:52.620Z,17.94
2023-05-06T09:05:57.131Z,18.00
2023-05-06T09:06:59.502Z,17.90
2023-05-06T09:08:01.961Z,18.24
2023-05-06T09:09:04.475Z,18.49
2023-05-06T09:10:13.816Z,18.32
2023-05-06T09:11:24.780Z,18.29
2023-05-06T09:12:27.054Z,18.09
2023-05-06T09:13:29.391Z,17.96
2023-05-06T09:14:31.666Z,18.11
2023-05-06T09:15:42.092Z,18.35
2023-05-06T09:16:47.026Z,18.07
2023-05-06T09:17:49.252Z,18.20
2023-05-06T09:18:51.607Z,18.17
2023-05-06T09:19:57.124Z,18.40
2023-05-06T09:21:00.750Z,18.33
2023-05-06T09:22:03.784Z,18.18
2023-05-06T09:23:08.407Z,18.26
2023-05-06T09:24:11.817Z,18.01
2023-05-06T09:25:14.180Z,18.07
2023-05-06T09:26:16.418Z,18.38
2023-05-06T09:27:19.406Z,18.34
2023-05-06T09:28:21.610Z,18.51
2023-05-06T09:29:23.817Z,18.71
2023-05-06T09:30:26.257Z,18.59
2023-05-06T09:31:29.163Z,18.74
2023-05-06T09:32:32.363Z,18.42
2023-05-06T09:33:36.824Z,18.39
2023-05-06T09:34:42.027Z,18.70
2023-05-06T09:35:44.421Z,18.66
2023-05-06T09:36:46.866Z,18.48
2023-05-06T09:37:48.988Z,18.49
2023-05-06T09:38:51.290Z,18.21
2023-05-06T09:39:58.614Z,18.32
2023-05-06T09:41:00.861Z,18.18
2023-05-06T09:42:03.422Z,18.01
2023-05-06T09:43:06.671Z,18.27
2023-05-06T09:44:09.017Z,18.34
2023-05-06T09:45:11.689Z,18.54
2023-05-06T09:46:14.210Z,18.75
2023-05-06T09:47:16.435Z,18.89
2023-05-06T09:48:18.758Z,19.04
2023-05-06T09:49:21.022Z,19.32
2023-05-06T09:50:24.510Z,19.83
2023-05-06T09:51:28.583Z,19.99
2023-05-06T09:52:31.481Z,19.93
2023-05-06T09:53:37.332Z,20.32
2023-05-06T09:54:40.685Z,20.44
2023-05-06T09:55:43.343Z,20.64
2023-05-06T09:56:46.544Z,20.56
2023-05-06T09:57:50.219Z,20.59
2023-05-06T09:58:52.800Z,21.02
2023-05-06T09:59:55.955Z,20.98
2023-05-06T10:00:58.188Z,21.11
2023-05-06T10:02:02.084Z,21.41
2023-05-06T10:03:05.092Z,21.78
2023-05-06T10:04:12.981Z,22.05
2023-05-06T10:05:17.321Z,21.93
2023-05-06T10:06:23.008Z,22.03
2023-05-06T10:07:28.763Z,21.64
2023-05-06T10:08:33.603Z,21.44
2023-05-06T10:09:36.807Z,21.14
2023-05-06T10:10:41.948Z,20.94
2023-05-06T10:11:45.979Z,20.82
2023-05-06T10:12:49.215Z,20.51
2023-05-06T10:13:51.985Z,20.35
2023-05-06T10:14:54.407Z,20.16
2023-05-06T10:15:57.209Z,20.18
2023-05-06T10:17:00.369Z,19.92
2023-05-06T10:18:04.289Z,19.78
2023-05-06T10:19:08.043Z,20.06
2023-05-06T10:20:14.022Z,20.27
2023-05-06T10:21:22.127Z,20.81
2023-05-06T10:22:27.221Z,20.73
2023-05-06T10:23:44.983Z,21.87
2023-05-06T10:24:58.489Z,22.52
2023-05-06T10:26:10.501Z,22.87
2023-05-06T10:27:14.063Z,23.10
2023-05-06T10:28:23.927Z,22.72
2023-05-06T10:29:37.380Z,23.40
2023-05-06T10:30:40.888Z,23.39
2023-05-06T10:31:54.701Z,23.66
2023-05-06T10:32:59.596Z,23.73
2023-05-06T10:34:05.045Z,23.45
2023-05-06T10:35:46.014Z,24.22
2023-05-06T10:36:57.597Z,24.08
2023-05-06T10:38:03.670Z,23.84
2023-05-06T10:39:09.975Z,23.57
2023-05-06T10:40:12.473Z,23.54
2023-05-06T10:41:15.580Z,23.33
2023-05-06T10:42:18.266Z,23.50
2023-05-06T10:43:31.570Z,23.82
2023-05-06T10:44:58.322Z,23.71
2023-05-06T10:46:17.420Z,23.69
2023-05-06T10:47:19.991Z,23.78
2023-05-06T10:48:22.254Z,23.14
2023-05-06T10:49:24.788Z,23.12
2023-05-06T10:50:29.213Z,23.37
2023-05-06T10:51:34.725Z,22.93
2023-05-06T10:52:47.666Z,23.21
2023-05-06T10:54:07.168Z,23.17
2023-05-06T10:55:29.390Z,23.26
2023-05-06T10:56:33.903Z,23.39
2023-05-06T10:57:44.851Z,23.71
2023-05-06T10:58:50.561Z,23.96
2023-05-06T10:59:54.851Z,24.15
2023-05-06T11:00:58.016Z,24.20
2023-05-06T11:02:03.096Z,24.71
2023-05-06T11:03:14.025Z,24.95
2023-05-06T11:05:52.243Z,25.72
2023-05-06T11:06:54.622Z,25.05
2023-05-06T11:08:10.508Z,25.31
2023-05-06T11:09:23.697Z,25.34
2023-05-06T11:10:33.310Z,25.77
2023-05-06T11:12:02.967Z,25.00
2023-05-06T11:13:22.300Z,25.61
2023-05-06T11:14:38.640Z,26.34
2023-05-06T11:15:41.311Z,26.63
2023-05-06T11:16:50.589Z,26.99
2023-05-06T11:17:56.765Z,27.42
2023-05-06T11:18:59.223Z,27.68
2023-05-06T11:20:21.609Z,27.66
2023-05-06T11:21:32.628Z,26.69
2023-05-06T11:22:40.971Z,26.28
2023-05-06T11:23:43.353Z,25.33
2023-05-06T11:24:45.690Z,25.56
2023-05-06T11:25:47.890Z,25.20
2023-05-06T11:26:50.619Z,25.61
2023-05-06T11:27:55.888Z,26.16
2023-05-06T11:29:02.140Z,26.50
2023-05-06T11:30:05.274Z,26.68
2023-05-06T11:31:08.277Z,26.97
2023-05-06T11:32:23.140Z,28.04
2023-05-06T11:33:31.549Z,28.58
2023-05-06T11:34:35.369Z,28.29
2023-05-06T11:35:37.711Z,29.04
2023-05-06T11:36:52.278Z,29.43
2023-05-06T11:37:54.496Z,29.84
2023-05-06T11:38:56.674Z,30.44
2023-05-06T11:39:58.782Z,30.79
2023-05-06T11:41:00.999Z,31.11
2023-05-06T11:42:05.750Z,30.48
2023-05-06T11:43:13.962Z,29.73
2023-05-06T11:44:32.602Z,28.96
2023-05-06T11:45:42.251Z,27.90
2023-05-06T11:46:44.456Z,27.23
2023-05-06T11:47:46.631Z,26.26
2023-05-06T11:48:50.265Z,26.73
2023-05-06T11:49:55.732Z,26.08
2023-05-06T11:50:58.102Z,25.57
2023-05-06T11:52:00.308Z,25.08
2023-05-06T11:53:02.568Z,24.99
2023-05-06T11:54:07.324Z,25.49
2023-05-06T11:55:12.394Z,26.51
2023-05-06T11:56:14.616Z,27.64
2023-05-06T11:57:16.856Z,28.35
2023-05-06T11:58:20.962Z,29.23
2023-05-06T11:59:40.060Z,29.84
2023-05-06T12:00:49.709Z,30.19
2023-05-06T12:01:53.221Z,29.66
2023-05-06T12:02:56.862Z,30.33
2023-05-06T12:03:59.205Z,31.36
2023-05-06T12:05:02.717Z,32.37
2023-05-06T12:06:05.090Z,32.15
2023-05-06T12:07:08.781Z,32.20
2023-05-06T12:08:23.658Z,32.55
2023-05-06T12:09:29.663Z,32.31
2023-05-06T12:10:31.813Z,32.02
2023-05-06T12:11:35.184Z,31.78
2023-05-06T12:12:37.527Z,31.73
2023-05-06T12:13:40.699Z,31.77
2023-05-06T12:14:44.574Z,31.75
2023-05-06T12:15:48.171Z,31.84
2023-05-06T12:16:50.455Z,31.26
2023-05-06T12:17:52.837Z,30.95
2023-05-06T12:18:55.539Z,31.15
2023-05-06T12:19:58.798Z,30.21
2023-05-06T12:21:04.417Z,29.94
2023-05-06T12:22:21.969Z,29.26
2023-05-06T12:23:24.185Z,28.41
2023-05-06T12:24:32.343Z,27.19
2023-05-06T12:25:34.547Z,27.17
2023-05-06T12:26:45.175Z,26.78
2023-05-06T12:27:47.208Z,26.42
2023-05-06T12:29:07.762Z,26.34
2023-05-06T12:30:11.323Z,25.80
2023-05-06T12:31:21.006Z,26.21
2023-05-06T12:32:23.366Z,26.44
2023-05-06T12:33:25.588Z,27.02
2023-05-06T12:34:37.432Z,26.65
2023-05-06T12:35:41.021Z,26.35
2023-05-06T12:36:45.670Z,26.05
2023-05-06T12:37:47.807Z,26.51
2023-05-06T12:39:00.935Z,25.98
2023-05-06T12:40:03.747Z,25.49
2023-05-06T12:41:07.662Z,25.69
2023-05-06T12:42:19.365Z,25.48
2023-05-06T12:43:30.639Z,25.33
2023-05-06T12:44:39.974Z,25.14
2023-05-06T12:45:42.225Z,24.86
2023-05-06T12:46:52.285Z,25.19
2023-05-06T12:47:59.844Z,24.24
2023-05-06T12:49:03.278Z,24.41
2023-05-06T12:50:05.803Z,24.60
2023-05-06T12:51:19.232Z,24.35
2023-05-06T12:52:28.567Z,24.96
2023-05-06T12:53:33.200Z,25.13
2023-05-06T12:54:35.996Z,24.78
2023-05-06T12:55:39.337Z,25.27
2023-05-06T12:56:41.469Z,24.96
2023-05-06T12:57:43.656Z,24.96
2023-05-06T12:58:56.363Z,25.17
2023-05-06T12:59:58.550Z,24.59
2023-05-06T13:01:01.049Z,24.72
2023-05-06T13:02:04.352Z,24.59
2023-05-06T13:03:06.612Z,24.44
2023-05-06T13:04:08.815Z,24.06
2023-05-06T13:05:11.017Z,23.90
2023-05-06T13:06:14.820Z,23.72
2023-05-06T13:07:17.086Z,23.33
2023-05-06T13:08:19.286Z,23.37
2023-05-06T13:09:21.806Z,23.50
2023-05-06T13:10:24.082Z,23.76
2023-05-06T13:11:27.902Z,23.75
2023-05-06T13:12:30.043Z,23.91
2023-05-06T13:13:32.237Z,23.31
2023-05-06T13:14:34.453Z,23.53
2023-05-06T13:15:37.319Z,23.26
2023-05-06T13:16:40.133Z,23.27
2023-05-06T13:17:42.342Z,23.21
2023-05-06T13:18:44.533Z,23.57
2023-05-06T13:19:46.997Z,23.44
2023-05-06T13:20:49.207Z,23.82
2023-05-06T13:21:51.407Z,23.95
2023-05-06T13:22:55.198Z,24.42
2023-05-06T13:23:58.030Z,24.54
2023-05-06T13:25:00.283Z,24.56
2023-05-06T13:26:06.055Z,24.81
2023-05-06T13:27:08.598Z,24.68
2023-05-06T13:28:10.908Z,24.55
2023-05-06T13:29:13.117Z,24.70
2023-05-06T13:30:15.703Z,24.37
2023-05-06T13:31:17.895Z,24.75
2023-05-06T13:32:20.818Z,24.77
2023-05-06T13:33:23.285Z,24.87
2023-05-06T13:34:26.043Z,24.92
2023-05-06T13:35:28.349Z,24.12
2023-05-06T13:36:31.200Z,24.29
2023-05-06T13:37:33.327Z,24.21
2023-05-06T13:38:35.760Z,24.26
2023-05-06T13:39:38.093Z,24.30
2023-05-06T13:40:40.344Z,23.92
2023-05-06T13:41:45.723Z,24.29
2023-05-06T13:42:47.885Z,24.46
2023-05-06T13:43:50.178Z,24.50
2023-05-06T13:44:52.330Z,24.33
2023-05-06T13:45:54.493Z,24.36
2023-05-06T13:46:56.921Z,24.13
2023-05-06T13:47:59.139Z,24.31
2023-05-06T13:49:01.327Z,24.06
2023-05-06T13:50:05.816Z,24.45